createdAt,value
2019-03-20T00:00:14.956Z,66.30
2019-03-20T00:02:42.629Z,66.24
2019-03-20T00:05:10.404Z,66.93
2019-03-20T00:07:38.156Z,66.36
2019-03-20T00:10:05.891Z,66.26
2019-03-20T00:12:33.539Z,66.37
2019-03-20T00:15:01.192Z,65.90
2019-03-20T00:17:28.915Z,66.33
2019-03-20T00:19:56.575Z,67.35
2019-03-20T00:22:24.245Z,68.25
2019-03-20T00:24:51.906Z,68.49
2019-03-20T00:27:19.539Z,68.21
2019-03-20T00:29:47.195Z,69.96
2019-03-20T00:32:14.847Z,68.97
2019-03-20T00:34:42.507Z,68.80
2019-03-20T00:37:10.342Z,69.32
2019-03-20T00:39:37.994Z,70.11
2019-03-20T00:42:05.688Z,70.04
2019-03-20T00:44:33.349Z,70.14
2019-03-20T00:47:00.991Z,69.45
2019-03-20T00:49:28.644Z,69.81
2019-03-20T00:51:56.299Z,69.52
2019-03-20T00:54:23.965Z,69.15
2019-03-20T00:56:51.652Z,69.16
2019-03-20T00:59:19.305Z,69.38
2019-03-20T01:01:46.955Z,69.22
2019-03-20T01:04:14.614Z,69.50
2019-03-20T01:06:42.256Z,70.00
2019-03-20T01:09:09.947Z,69.86
2019-03-20T01:11:37.603Z,70.81
2019-03-20T01:14:05.263Z,70.71
2019-03-20T01:16:33.019Z,70.97
2019-03-20T01:19:00.673Z,71.56
2019-03-20T01:21:28.335Z,71.59
2019-03-20T01:23:55.975Z,71.21
2019-03-20T01:26:23.632Z,71.08
2019-03-20T01:28:51.280Z,71.33
2019-03-20T01:31:18.927Z,72.47
2019-03-20T01:33:46.570Z,72.57
2019-03-20T01:36:14.227Z,72.26
2019-03-20T01:38:41.871Z,72.10
2019-03-20T01:41:09.603Z,72.09
2019-03-20T01:43:37.256Z,71.99
2019-03-20T01:46:04.948Z,71.71
2019-03-20T01:48:32.607Z,71.47
2019-03-20T01:51:00.259Z,71.44
2019-03-20T01:53:27.903Z,72.22
2019-03-20T01:55:55.552Z,71.91
2019-03-20T01:58:23.225Z,72.20
2019-03-20T02:00:50.878Z,72.78
2019-03-20T02:03:18.531Z,72.41
2019-03-20T02:05:46.185Z,73.88
2019-03-20T02:08:13.835Z,74.52
2019-03-20T02:10:41.478Z,73.26
2019-03-20T02:13:09.155Z,73.86
2019-03-20T02:15:39.307Z,73.19
2019-03-20T02:18:06.330Z,73.31
2019-03-20T02:20:33.983Z,73.86
2019-03-20T02:23:01.636Z,73.72
2019-03-20T02:25:29.325Z,73.25
2019-03-20T02:27:56.997Z,72.92
2019-03-20T02:30:24.721Z,73.27
2019-03-20T02:32:52.372Z,73.51
2019-03-20T02:35:20.016Z,73.90
2019-03-20T02:37:47.660Z,74.43
2019-03-20T02:40:15.306Z,74.42
2019-03-20T02:42:43.124Z,74.02
2019-03-20T02:45:10.900Z,74.50
2019-03-20T02:47:38.562Z,74.20
2019-03-20T02:50:06.223Z,74.38
2019-03-20T02:52:33.872Z,74.46
2019-03-20T02:55:01.575Z,75.49
2019-03-20T02:57:29.322Z,75.74
2019-03-20T02:59:57.027Z,76.37
2019-03-20T03:02:24.684Z,76.44
2019-03-20T03:04:52.325Z,76.65
2019-03-20T03:07:19.976Z,77.31
2019-03-20T03:09:47.628Z,78.33
2019-03-20T03:12:15.281Z,78.95
2019-03-20T03:14:42.961Z,78.22
2019-03-20T03:17:10.604Z,78.33
2019-03-20T03:19:38.249Z,79.67
2019-03-20T03:22:05.892Z,78.79
2019-03-20T03:24:33.549Z,79.63
2019-03-20T03:27:01.205Z,78.77
2019-03-20T03:29:28.843Z,79.09
2019-03-20T03:31:56.506Z,78.94
2019-03-20T03:34:24.159Z,79.38
2019-03-20T03:36:51.827Z,79.17
2019-03-20T03:39:19.470Z,79.80
2019-03-20T03:41:47.218Z,80.84
2019-03-20T03:44:14.865Z,80.34
2019-03-20T03:46:42.522Z,81.34
2019-03-20T03:49:10.175Z,82.55
2019-03-20T03:51:37.847Z,82.38
2019-03-20T03:54:05.513Z,83.43
2019-03-20T03:56:33.160Z,82.56
2019-03-20T03:59:00.815Z,82.80
2019-03-20T04:01:28.462Z,82.79
2019-03-20T04:03:56.127Z,82.11
2019-03-20T04:06:34.979Z,81.02
2019-03-20T04:08:53.160Z,82.63
2019-03-20T04:11:20.821Z,82.73
2019-03-20T04:13:48.468Z,82.62
2019-03-20T04:16:16.125Z,82.80
2019-03-20T04:18:43.799Z,82.54
2019-03-20T04:21:11.470Z,82.34
2019-03-20T04:23:39.182Z,83.04
2019-03-20T04:26:06.835Z,82.76
2019-03-20T04:28:34.562Z,83.51
2019-03-20T04:31:02.313Z,82.62
2019-03-20T04:33:29.950Z,84.00
2019-03-20T04:35:57.615Z,83.95
2019-03-20T04:38:25.271Z,84.33
2019-03-20T04:40:52.927Z,84.28
2019-03-20T04:43:20.583Z,83.16
2019-03-20T04:45:48.231Z,83.36
2019-03-20T04:48:15.906Z,83.79
2019-03-20T04:50:43.559Z,83.83
2019-03-20T04:53:11.203Z,83.57
2019-03-20T04:55:38.851Z,84.62
2019-03-20T04:58:06.523Z,84.59
2019-03-20T05:00:34.172Z,84.69
2019-03-20T05:03:01.845Z,84.19
2019-03-20T05:05:29.479Z,84.92
2019-03-20T05:07:57.140Z,85.09
2019-03-20T05:10:24.807Z,84.12
2019-03-20T05:12:52.472Z,84.97
2019-03-20T05:15:20.168Z,84.42
2019-03-20T05:17:47.870Z,84.22
2019-03-20T05:20:15.539Z,83.98
2019-03-20T05:22:43.240Z,84.29
2019-03-20T05:25:10.889Z,83.42
2019-03-20T05:27:38.548Z,83.50
2019-03-20T05:30:06.195Z,83.81
2019-03-20T05:32:33.851Z,84.22
2019-03-20T05:35:01.536Z,85.45
2019-03-20T05:37:29.193Z,85.26
2019-03-20T05:39:56.839Z,85.19
2019-03-20T05:42:24.499Z,85.24
2019-03-20T05:44:52.148Z,85.14
2019-03-20T05:47:19.795Z,85.50
2019-03-20T05:49:47.435Z,85.63
2019-03-20T05:52:15.106Z,85.04
2019-03-20T05:54:42.768Z,84.01
2019-03-20T05:57:12.522Z,83.41
2019-03-20T05:59:39.886Z,82.94
2019-03-20T06:02:07.543Z,82.26
2019-03-20T06:04:35.376Z,81.96
2019-03-20T06:07:03.039Z,81.21
2019-03-20T06:09:30.684Z,80.71
2019-03-20T06:11:58.348Z,80.60
2019-03-20T06:14:25.978Z,79.66
2019-03-20T06:16:53.667Z,79.22
2019-03-20T06:19:21.341Z,78.86
2019-03-20T06:21:48.991Z,78.32
2019-03-20T06:24:16.642Z,76.89
2019-03-20T06:26:44.299Z,76.91
2019-03-20T06:29:11.956Z,76.34
2019-03-20T06:31:39.603Z,75.31
2019-03-20T06:34:07.270Z,75.08
2019-03-20T06:36:34.929Z,74.12
2019-03-20T06:39:04.916Z,73.41
2019-03-20T06:41:31.947Z,72.80
2019-03-20T06:43:59.607Z,71.49
2019-03-20T06:46:27.258Z,70.88
2019-03-20T06:48:54.922Z,71.72
2019-03-20T06:51:22.557Z,71.06
2019-03-20T06:53:50.222Z,70.45
2019-03-20T06:56:17.971Z,71.56
2019-03-20T06:58:45.626Z,71.22
2019-03-20T07:01:13.279Z,70.56
2019-03-20T07:03:40.942Z,70.83
2019-03-20T07:06:08.627Z,69.16
2019-03-20T07:08:36.320Z,68.70
2019-03-20T07:11:03.990Z,67.33
2019-03-20T07:13:31.684Z,67.85
2019-03-20T07:15:59.341Z,67.06
2019-03-20T07:18:26.988Z,66.47
2019-03-20T07:20:54.643Z,65.14
2019-03-20T07:23:22.350Z,64.43
2019-03-20T07:25:50.067Z,63.66
2019-03-20T07:28:17.714Z,63.60
2019-03-20T07:30:45.390Z,63.05
2019-03-20T07:33:13.030Z,61.69
2019-03-20T07:35:40.688Z,61.70
2019-03-20T07:38:08.349Z,60.59
2019-03-20T07:40:36.000Z,61.04
2019-03-20T07:43:08.853Z,60.97
2019-03-20T07:45:33.022Z,60.34
2019-03-20T07:48:00.676Z,59.20
2019-03-20T07:50:28.322Z,59.48
2019-03-20T07:52:55.974Z,59.53
2019-03-20T07:55:23.632Z,58.46
2019-03-20T07:57:51.267Z,57.72
2019-03-20T08:00:18.932Z,57.48
2019-03-20T08:02:46.591Z,56.62
2019-03-20T08:05:14.233Z,56.76
2019-03-20T08:07:41.885Z,56.06
2019-03-20T08:10:09.547Z,56.95
2019-03-20T08:12:37.192Z,56.77
2019-03-20T08:15:04.856Z,55.45
2019-03-20T08:17:32.518Z,55.80
2019-03-20T08:20:00.326Z,55.90
2019-03-20T08:22:27.997Z,56.30
2019-03-20T08:24:55.909Z,55.73
2019-03-20T08:27:23.704Z,54.93
2019-03-20T08:29:51.336Z,52.61
2019-03-20T08:32:19.000Z,52.55
2019-03-20T08:34:46.640Z,52.39
2019-03-20T08:37:14.287Z,51.95
2019-03-20T08:39:41.931Z,52.76
2019-03-20T08:42:09.588Z,50.55
2019-03-20T08:44:37.245Z,49.86
2019-03-20T08:47:04.889Z,48.91
2019-03-20T08:49:32.643Z,47.67
2019-03-20T08:52:00.302Z,49.02
2019-03-20T08:54:28.030Z,48.28
2019-03-20T08:56:55.701Z,48.87
2019-03-20T08:59:23.369Z,48.72
2019-03-20T09:01:51.023Z,48.26
2019-03-20T09:04:18.664Z,46.62
2019-03-20T09:06:46.324Z,49.72
2019-03-20T09:09:13.971Z,48.50
2019-03-20T09:11:41.624Z,48.93
2019-03-20T09:14:09.291Z,47.80
2019-03-20T09:16:36.977Z,45.19
2019-03-20T09:19:04.711Z,44.49
2019-03-20T09:21:32.393Z,45.37
2019-03-20T09:24:00.072Z,44.48
2019-03-20T09:26:27.722Z,45.26
2019-03-20T09:28:55.382Z,43.97
2019-03-20T09:31:23.074Z,41.95
2019-03-20T09:33:50.840Z,39.62
2019-03-20T09:36:18.599Z,39.42
2019-03-20T09:38:46.251Z,40.58
2019-03-20T09:41:13.907Z,40.68
2019-03-20T09:43:41.559Z,37.85
2019-03-20T09:46:09.230Z,39.72
2019-03-20T09:48:36.899Z,40.99
2019-03-20T09:51:04.551Z,40.99
2019-03-20T09:53:32.201Z,39.36
2019-03-20T09:55:59.862Z,39.79
2019-03-20T09:58:27.524Z,40.54
2019-03-20T10:00:55.308Z,40.19
2019-03-20T10:03:22.974Z,39.41
2019-03-20T10:05:50.639Z,41.03
2019-03-20T10:08:18.271Z,40.43
2019-03-20T10:10:45.948Z,41.33
2019-03-20T10:13:13.629Z,40.38
2019-03-20T10:15:41.282Z,40.11
2019-03-20T10:18:08.933Z,40.78
2019-03-20T10:20:36.579Z,42.21
2019-03-20T10:23:04.230Z,41.58
2019-03-20T10:25:31.877Z,41.02
2019-03-20T10:27:59.523Z,41.69
2019-03-20T10:30:27.185Z,41.15
2019-03-20T10:32:54.831Z,42.39
2019-03-20T10:35:22.492Z,42.50
2019-03-20T10:37:50.139Z,42.30
2019-03-20T10:40:17.797Z,42.40
2019-03-20T10:42:45.454Z,40.56
2019-03-20T10:45:13.147Z,40.79
2019-03-20T10:47:40.815Z,41.08
2019-03-20T10:50:08.483Z,41.55
2019-03-20T10:52:36.139Z,38.03
2019-03-20T10:55:03.840Z,39.00
2019-03-20T10:57:31.570Z,38.62
2019-03-20T10:59:59.269Z,38.62
2019-03-20T11:02:27.099Z,38.16
2019-03-20T11:04:54.828Z,38.59
2019-03-20T11:07:22.475Z,38.00
2019-03-20T11:09:50.140Z,37.66
2019-03-20T11:12:17.840Z,37.91
2019-03-20T11:14:45.663Z,37.89
2019-03-20T11:17:13.502Z,37.40
2019-03-20T11:19:41.168Z,39.42
2019-03-20T11:22:18.378Z,39.37
2019-03-20T11:24:38.175Z,38.27
2019-03-20T11:27:05.828Z,39.00
2019-03-20T11:29:33.484Z,38.34
2019-03-20T11:32:01.132Z,38.87
2019-03-20T11:34:28.798Z,39.24
2019-03-20T11:36:56.457Z,38.70
2019-03-20T11:39:29.474Z,37.55
2019-03-20T11:41:53.546Z,38.69
2019-03-20T11:44:21.229Z,37.49
2019-03-20T11:46:48.888Z,35.18
2019-03-20T11:49:16.634Z,35.52
2019-03-20T11:51:44.438Z,37.15
2019-03-20T11:54:12.107Z,37.53
2019-03-20T11:56:39.874Z,37.53
2019-03-20T11:59:08.039Z,38.58
2019-03-20T12:01:35.684Z,39.49
2019-03-20T12:04:03.314Z,38.68
2019-03-20T12:06:31.051Z,36.44
2019-03-20T12:08:58.811Z,37.62
2019-03-20T12:11:26.488Z,38.04
2019-03-20T12:13:54.227Z,38.19
2019-03-20T12:16:21.880Z,38.16
2019-03-20T12:18:49.610Z,38.24
2019-03-20T12:21:17.280Z,38.02
2019-03-20T12:23:44.926Z,39.92
2019-03-20T12:26:12.670Z,36.97
2019-03-20T12:28:40.325Z,37.96
2019-03-20T12:31:07.984Z,37.31
2019-03-20T12:33:35.631Z,37.92
2019-03-20T12:36:03.275Z,37.25
2019-03-20T12:38:30.935Z,37.56
2019-03-20T12:40:58.969Z,36.99
2019-03-20T12:43:26.709Z,36.87
2019-03-20T12:45:54.370Z,37.57
2019-03-20T12:48:22.018Z,37.46
2019-03-20T12:50:49.681Z,37.26
2019-03-20T12:53:17.330Z,38.32
2019-03-20T12:55:45.158Z,37.01
2019-03-20T12:58:13.725Z,36.58
2019-03-20T13:00:41.623Z,37.57
2019-03-20T13:03:09.271Z,37.51
2019-03-20T13:05:36.927Z,36.94
2019-03-20T13:08:06.112Z,37.48
2019-03-20T13:10:34.003Z,37.10
2019-03-20T13:13:01.701Z,36.70
2019-03-20T13:15:29.498Z,36.35
2019-03-20T13:17:57.154Z,36.57
2019-03-20T13:20:24.806Z,37.67
2019-03-20T13:22:52.472Z,37.57
2019-03-20T13:25:20.164Z,36.34
2019-03-20T13:27:47.820Z,35.26
2019-03-20T13:30:20.174Z,35.86
2019-03-20T13:32:44.842Z,36.41
2019-03-20T13:35:12.514Z,36.88
2019-03-20T13:37:40.244Z,36.94
2019-03-20T13:40:14.284Z,36.75
2019-03-20T13:42:37.335Z,36.69
2019-03-20T13:45:05.023Z,35.93
2019-03-20T13:47:32.692Z,35.90
2019-03-20T13:50:00.429Z,35.90
2019-03-20T13:52:28.231Z,35.63
2019-03-20T13:54:56.008Z,36.99
2019-03-20T13:57:23.657Z,36.74
2019-03-20T13:59:51.472Z,34.41
2019-03-20T14:02:19.158Z,35.61
2019-03-20T14:04:46.826Z,36.83
2019-03-20T14:07:14.497Z,37.16
2019-03-20T14:09:42.306Z,36.12
2019-03-20T14:12:09.997Z,36.14
2019-03-20T14:14:37.705Z,37.46
2019-03-20T14:17:05.787Z,36.97
2019-03-20T14:19:33.444Z,36.92
2019-03-20T14:22:01.147Z,35.73
2019-03-20T14:24:28.795Z,36.16
2019-03-20T14:26:56.475Z,36.62
2019-03-20T14:29:24.095Z,36.62
2019-03-20T14:31:51.804Z,36.53
2019-03-20T14:34:19.843Z,36.91
2019-03-20T14:36:47.504Z,36.21
2019-03-20T14:39:15.352Z,36.38
2019-03-20T14:41:43.065Z,37.17
2019-03-20T14:44:10.838Z,37.21
2019-03-20T14:46:38.500Z,37.01
2019-03-20T14:49:06.152Z,35.74
2019-03-20T14:51:33.808Z,35.18
2019-03-20T14:54:01.646Z,35.12
2019-03-20T14:56:29.392Z,35.17
2019-03-20T14:58:57.222Z,34.35
2019-03-20T15:01:24.911Z,34.97
2019-03-20T15:03:52.548Z,36.04
2019-03-20T15:06:20.206Z,35.85
2019-03-20T15:08:47.963Z,34.54
2019-03-20T15:11:15.732Z,34.54
2019-03-20T15:13:43.740Z,35.26
2019-03-20T15:16:11.411Z,35.10
2019-03-20T15:18:39.243Z,36.03
2019-03-20T15:21:06.903Z,36.04
2019-03-20T15:23:34.542Z,36.02
2019-03-20T15:26:02.209Z,36.00
2019-03-20T15:28:29.870Z,36.35
2019-03-20T15:30:57.602Z,36.94
2019-03-20T15:33:25.338Z,35.02
2019-03-20T15:35:53.003Z,35.02
2019-03-20T15:38:20.679Z,34.72
2019-03-20T15:40:55.917Z,35.11
2019-03-20T15:43:17.676Z,36.18
2019-03-20T15:45:45.431Z,35.01
2019-03-20T15:48:13.083Z,35.62
2019-03-20T15:50:40.730Z,35.98
2019-03-20T15:53:08.402Z,36.20
2019-03-20T15:55:36.058Z,36.54
2019-03-20T15:58:03.708Z,36.50
2019-03-20T16:00:31.392Z,35.38
2019-03-20T16:02:59.028Z,36.52
2019-03-20T16:05:26.709Z,36.11
2019-03-20T16:07:54.927Z,36.19
2019-03-20T16:10:22.555Z,37.03
2019-03-20T16:12:50.228Z,37.80
2019-03-20T16:15:17.888Z,37.80
2019-03-20T16:17:45.562Z,37.98
2019-03-20T16:20:13.214Z,37.28
2019-03-20T16:22:40.923Z,36.86
2019-03-20T16:25:08.623Z,37.15
2019-03-20T16:27:36.265Z,37.35
2019-03-20T16:30:03.914Z,36.60
2019-03-20T16:32:31.555Z,36.50
2019-03-20T16:34:59.386Z,36.96
2019-03-20T16:37:27.039Z,36.96
2019-03-20T16:39:54.694Z,37.69
2019-03-20T16:42:22.482Z,38.53
2019-03-20T16:44:50.158Z,38.61
2019-03-20T16:47:17.808Z,38.80
2019-03-20T16:49:45.452Z,38.80
2019-03-20T16:52:13.123Z,39.59
2019-03-20T16:54:40.778Z,39.30
2019-03-20T16:57:08.452Z,39.25
2019-03-20T16:59:36.099Z,40.32
2019-03-20T17:02:03.763Z,39.78
2019-03-20T17:04:31.399Z,39.90
2019-03-20T17:06:59.064Z,40.32
2019-03-20T17:09:26.829Z,40.87
2019-03-20T17:11:54.485Z,41.16
2019-03-20T17:14:22.138Z,41.27
2019-03-20T17:16:49.791Z,41.86
2019-03-20T17:19:17.609Z,40.83
2019-03-20T17:21:45.275Z,41.55
2019-03-20T17:24:13.071Z,41.67
2019-03-20T17:26:40.727Z,41.34
2019-03-20T17:29:09.135Z,41.70
2019-03-20T17:31:37.114Z,42.32
2019-03-20T17:34:04.844Z,42.32
2019-03-20T17:36:32.707Z,43.23
2019-03-20T17:39:00.423Z,44.19
2019-03-20T17:41:36.441Z,44.19
2019-03-20T17:43:57.416Z,45.06
2019-03-20T17:46:25.067Z,44.48
2019-03-20T17:48:52.722Z,45.36
2019-03-20T17:51:20.398Z,45.32
2019-03-20T17:53:48.039Z,45.93
2019-03-20T17:56:15.710Z,46.12
2019-03-20T17:58:43.372Z,45.89
2019-03-20T18:01:11.013Z,47.52
2019-03-20T18:03:38.666Z,47.97
2019-03-20T18:06:06.698Z,48.80
2019-03-20T18:08:34.339Z,48.60
2019-03-20T18:11:02.012Z,49.07
2019-03-20T18:13:29.658Z,49.71
2019-03-20T18:15:57.412Z,50.02
2019-03-20T18:18:25.075Z,49.15
2019-03-20T18:20:52.711Z,49.99
2019-03-20T18:23:20.554Z,50.91
2019-03-20T18:25:48.199Z,50.01
2019-03-20T18:28:15.850Z,51.53
2019-03-20T18:30:43.499Z,51.51
2019-03-20T18:33:11.150Z,52.41
2019-03-20T18:35:38.801Z,51.92
2019-03-20T18:38:06.489Z,52.23
2019-03-20T18:40:34.320Z,52.01
2019-03-20T18:43:02.060Z,52.51
2019-03-20T18:45:29.697Z,53.52
2019-03-20T18:47:57.390Z,54.21
2019-03-20T18:50:25.044Z,54.02
2019-03-20T18:52:52.711Z,54.04
2019-03-20T18:55:20.357Z,54.07
2019-03-20T18:57:48.105Z,53.16
2019-03-20T19:00:15.752Z,53.31
2019-03-20T19:02:43.402Z,54.37
2019-03-20T19:05:11.135Z,55.38
2019-03-20T19:07:39.021Z,55.38
2019-03-20T19:10:06.847Z,55.97
2019-03-20T19:12:34.530Z,56.71
2019-03-20T19:15:02.268Z,55.73
2019-03-20T19:17:29.906Z,56.01
2019-03-20T19:19:57.574Z,55.92
2019-03-20T19:22:25.223Z,56.29
2019-03-20T19:24:52.927Z,56.77
2019-03-20T19:27:20.583Z,57.30
2019-03-20T19:29:48.241Z,57.38
2019-03-20T19:32:15.895Z,57.75
2019-03-20T19:34:43.547Z,57.12
2019-03-20T19:37:11.282Z,57.30
2019-03-20T19:39:38.927Z,57.90
2019-03-20T19:42:06.590Z,57.87
2019-03-20T19:44:34.247Z,58.28
2019-03-20T19:47:01.942Z,58.25
2019-03-20T19:49:29.595Z,57.22
2019-03-20T19:51:57.247Z,58.36
2019-03-20T19:54:24.907Z,58.59
2019-03-20T19:56:52.558Z,57.59
2019-03-20T19:59:20.212Z,57.03
2019-03-20T20:01:47.858Z,56.36
2019-03-20T20:04:15.528Z,57.58
2019-03-20T20:06:43.193Z,58.00
2019-03-20T20:09:10.909Z,58.93
2019-03-20T20:11:38.699Z,57.84
2019-03-20T20:14:06.350Z,56.81
2019-03-20T20:16:33.999Z,57.23
2019-03-20T20:19:01.651Z,56.93
2019-03-20T20:21:29.299Z,57.43
2019-03-20T20:23:57.026Z,57.65
2019-03-20T20:26:24.674Z,58.08
2019-03-20T20:28:52.341Z,57.35
2019-03-20T20:31:20.005Z,57.52
2019-03-20T20:33:47.666Z,58.06
2019-03-20T20:36:15.311Z,57.67
2019-03-20T20:38:42.967Z,57.91
2019-03-20T20:41:10.630Z,58.19
2019-03-20T20:43:39.834Z,59.45
2019-03-20T20:46:07.774Z,58.61
2019-03-20T20:48:35.439Z,58.36
2019-03-20T20:51:03.186Z,58.40
2019-03-20T20:53:30.918Z,58.33
2019-03-20T20:55:58.585Z,57.83
2019-03-20T20:58:26.230Z,57.64
2019-03-20T21:00:53.878Z,59.08
2019-03-20T21:03:21.530Z,59.26
2019-03-20T21:05:49.427Z,58.55
2019-03-20T21:08:17.143Z,58.34
2019-03-20T21:10:44.791Z,59.09
2019-03-20T21:13:12.494Z,58.80
2019-03-20T21:15:40.163Z,59.00
2019-03-20T21:18:07.837Z,59.42
2019-03-20T21:20:35.547Z,59.19
2019-03-20T21:23:03.215Z,59.81
2019-03-20T21:25:30.867Z,60.09
2019-03-20T21:27:58.529Z,59.81
2019-03-20T21:30:26.180Z,59.87
2019-03-20T21:32:53.833Z,59.88
2019-03-20T21:35:21.499Z,60.01
2019-03-20T21:37:49.163Z,59.74
2019-03-20T21:40:16.827Z,59.97
2019-03-20T21:42:44.482Z,59.98
2019-03-20T21:45:12.132Z,59.83
2019-03-20T21:47:39.778Z,59.79
2019-03-20T21:50:07.460Z,59.72
2019-03-20T21:52:37.289Z,59.84
2019-03-20T21:55:04.729Z,60.80
2019-03-20T21:57:32.387Z,60.39
2019-03-20T22:00:00.067Z,60.53
2019-03-20T22:02:27.805Z,61.53
2019-03-20T22:04:55.641Z,61.22
2019-03-20T22:07:23.367Z,60.91
2019-03-20T22:09:51.030Z,61.75
2019-03-20T22:12:18.776Z,61.97
2019-03-20T22:14:46.433Z,61.73
2019-03-20T22:17:14.114Z,62.00
2019-03-20T22:19:41.782Z,61.92
2019-03-20T22:22:09.482Z,61.70
2019-03-20T22:24:37.143Z,62.65
2019-03-20T22:27:04.815Z,63.83
2019-03-20T22:29:32.742Z,64.20
2019-03-20T22:32:00.403Z,63.92
2019-03-20T22:34:28.048Z,64.26
2019-03-20T22:36:55.719Z,65.05
2019-03-20T22:39:24.037Z,65.49
2019-03-20T22:41:51.747Z,65.18
2019-03-20T22:44:21.874Z,66.22
2019-03-20T22:46:48.901Z,65.56
2019-03-20T22:49:16.619Z,66.10
2019-03-20T22:51:44.281Z,66.47
2019-03-20T22:54:11.931Z,66.84
2019-03-20T22:56:39.578Z,65.81
2019-03-20T22:59:07.231Z,66.68
2019-03-20T23:01:34.880Z,67.50
2019-03-20T23:04:02.616Z,67.08
2019-03-20T23:06:30.274Z,66.71
2019-03-20T23:08:57.927Z,66.82
2019-03-20T23:11:25.611Z,67.11
2019-03-20T23:13:53.258Z,66.99
2019-03-20T23:16:20.916Z,67.41
2019-03-20T23:18:48.608Z,67.21
2019-03-20T23:21:16.280Z,66.42
2019-03-20T23:23:43.948Z,66.74
2019-03-20T23:26:11.613Z,67.09
2019-03-20T23:28:39.262Z,67.01
2019-03-20T23:31:06.915Z,66.38
2019-03-20T23:33:34.701Z,68.21
2019-03-20T23:36:02.393Z,66.42
2019-03-20T23:38:30.039Z,65.64
2019-03-20T23:40:57.697Z,65.44
2019-03-20T23:43:25.363Z,64.96
2019-03-20T23:45:53.082Z,65.10
2019-03-20T23:48:20.731Z,65.13
2019-03-20T23:50:48.391Z,64.95
2019-03-20T23:53:16.034Z,64.99
2019-03-20T23:55:43.682Z,65.10
2019-03-20T23:58:11.347Z,64.82
